createdAt,value
2022-08-05T00:04:57.320Z,6.40
2022-08-05T00:09:59.361Z,6.28
2022-08-05T00:15:54.271Z,7.82
2022-08-05T00:20:28.769Z,7.03
2022-08-05T00:25:41.585Z,10.32
2022-08-05T00:30:52.131Z,7.18
2022-08-05T00:36:15.241Z,7.72
2022-08-05T00:41:52.143Z,6.85
2022-08-05T00:47:02.028Z,7.35
2022-08-05T00:52:07.677Z,9.63
2022-08-05T00:57:09.754Z,9.38
2022-08-05T01:02:12.013Z,8.32
2022-08-05T01:07:14.103Z,8.95
2022-08-05T01:12:21.813Z,8.52
2022-08-05T01:17:40.145Z,8.15
2022-08-05T01:23:14.288Z,5.13
2022-08-05T01:28:27.147Z,7.35
2022-08-05T01:33:36.042Z,8.00
2022-08-05T01:38:38.480Z,7.10
2022-08-05T01:43:41.530Z,8.60
2022-08-05T01:48:49.629Z,6.75
2022-08-05T01:53:58.149Z,8.57
2022-08-05T01:59:06.496Z,7.43
2022-08-05T02:04:10.991Z,5.15
2022-08-05T02:09:14.697Z,5.75
2022-08-05T02:14:27.349Z,10.13
2022-08-05T02:19:47.642Z,8.65
2022-08-05T02:25:08.536Z,9.43
2022-08-05T02:30:16.389Z,6.07
2022-08-05T02:35:28.132Z,7.40
2022-08-05T02:40:36.035Z,6.45
2022-08-05T02:45:51.386Z,8.77
2022-08-05T02:50:55.849Z,5.10
2022-08-05T02:56:00.262Z,10.40
2022-08-05T03:01:05.369Z,7.72
2022-08-05T03:06:54.301Z,7.93
2022-08-05T03:11:56.167Z,8.85
2022-08-05T03:16:54.708Z,6.88
2022-08-05T03:21:59.700Z,8.82
2022-08-05T03:27:02.013Z,9.02
2022-08-05T03:32:05.761Z,7.60
2022-08-05T03:37:10.817Z,8.38
2022-08-05T03:42:12.834Z,10.18
2022-08-05T03:47:14.865Z,9.05
2022-08-05T03:52:49.265Z,9.30
2022-08-05T03:57:52.711Z,5.80
2022-08-05T04:02:59.213Z,6.97
2022-08-05T04:08:29.986Z,8.50
2022-08-05T04:13:51.351Z,6.85
2022-08-05T04:18:54.400Z,7.75
2022-08-05T04:24:04.995Z,6.78
2022-08-05T04:29:08.850Z,6.30
2022-08-05T04:34:31.897Z,6.40
2022-08-05T04:39:35.437Z,7.22
2022-08-05T04:44:37.813Z,7.50
2022-08-05T04:50:01.958Z,7.95
2022-08-05T04:55:14.008Z,6.50
2022-08-05T05:00:17.517Z,8.38
2022-08-05T05:05:28.350Z,6.40
2022-08-05T05:10:33.828Z,10.50
2022-08-05T05:15:57.059Z,8.30
2022-08-05T05:20:58.637Z,9.63
2022-08-05T05:26:00.779Z,5.72
2022-08-05T05:31:02.810Z,6.57
2022-08-05T05:36:08.294Z,6.75
2022-08-05T05:41:12.383Z,7.47
2022-08-05T05:46:19.176Z,6.50
2022-08-05T05:51:25.819Z,6.72
2022-08-05T05:56:34.152Z,9.38
2022-08-05T06:01:39.774Z,10.57
2022-08-05T06:06:47.710Z,4.50
2022-08-05T06:12:01.696Z,6.25
2022-08-05T06:17:22.271Z,7.13
2022-08-05T06:22:33.628Z,5.10
2022-08-05T06:28:10.447Z,7.07
2022-08-05T06:32:58.330Z,6.95
2022-08-05T06:38:04.259Z,5.70
2022-08-05T06:43:57.198Z,6.00
2022-08-05T06:48:56.107Z,5.72
2022-08-05T06:54:04.035Z,7.25
2022-08-05T06:59:08.390Z,5.22
2022-08-05T07:04:10.754Z,3.60
2022-08-05T07:09:16.184Z,6.10
2022-08-05T07:14:36.777Z,7.35
2022-08-05T07:25:23.944Z,4.05
2022-08-05T07:30:30.629Z,3.10
2022-08-05T07:35:55.830Z,5.50
2022-08-05T07:41:00.352Z,3.75
2022-08-05T07:46:06.744Z,3.97
2022-08-05T07:51:37.240Z,3.08
2022-08-05T07:57:13.560Z,5.65
2022-08-05T08:02:05.220Z,5.07
2022-08-05T08:07:07.591Z,6.32
2022-08-05T08:12:27.467Z,2.97
2022-08-05T08:17:32.851Z,2.63
2022-08-05T08:22:35.279Z,4.28
2022-08-05T08:27:44.820Z,3.60
2022-08-05T08:32:50.117Z,3.63
2022-08-05T08:37:54.463Z,3.53
2022-08-05T08:44:57.872Z,3.25
2022-08-05T08:48:41.650Z,3.80
2022-08-05T08:53:45.157Z,1.80
2022-08-05T08:58:48.613Z,2.72
2022-08-05T09:03:58.270Z,2.42
2022-08-05T09:09:02.055Z,3.00
2022-08-05T09:14:54.679Z,3.67
2022-08-05T09:19:36.284Z,2.00
2022-08-05T09:25:01.162Z,2.35
2022-08-05T09:30:06.755Z,3.90
2022-08-05T09:35:26.732Z,3.05
2022-08-05T09:40:29.569Z,3.97
2022-08-05T09:46:06.756Z,2.15
2022-08-05T09:51:04.909Z,3.42
2022-08-05T09:56:33.275Z,2.92
2022-08-05T10:01:40.306Z,2.45
2022-08-05T10:06:59.518Z,2.40
2022-08-05T10:12:30.670Z,2.13
2022-08-05T10:17:37.208Z,3.95
2022-08-05T10:22:43.201Z,2.45
2022-08-05T10:28:12.768Z,1.95
2022-08-05T10:33:15.294Z,0.85
2022-08-05T10:38:20.684Z,5.03
2022-08-05T10:43:35.953Z,2.83
2022-08-05T10:48:57.163Z,2.15
2022-08-05T10:54:05.890Z,3.25
2022-08-05T11:00:04.465Z,2.67
2022-08-05T11:04:54.977Z,4.32
2022-08-05T11:10:04.006Z,3.70
2022-08-05T11:15:21.512Z,1.52
2022-08-05T11:20:45.141Z,2.85
2022-08-05T11:26:10.378Z,1.67
2022-08-05T11:31:12.375Z,2.85
2022-08-05T11:36:52.808Z,1.25
2022-08-05T11:42:02.367Z,2.58
2022-08-05T11:47:10.908Z,2.50
2022-08-05T11:52:24.307Z,5.38
2022-08-05T11:58:07.907Z,2.47
2022-08-05T12:02:53.900Z,2.85
2022-08-05T12:08:08.179Z,1.83
2022-08-05T12:13:15.873Z,2.60
2022-08-05T12:18:20.661Z,1.00
2022-08-05T12:23:26.353Z,2.78
2022-08-05T12:28:34.643Z,1.15
2022-08-05T12:33:38.979Z,1.65
2022-08-05T12:38:41.591Z,1.95
2022-08-05T12:43:50.980Z,1.13
2022-08-05T12:49:15.086Z,3.63
2022-08-05T12:54:23.574Z,1.30
2022-08-05T12:59:46.872Z,0.82
2022-08-05T13:04:54.923Z,2.50
2022-08-05T13:10:00.993Z,1.42
2022-08-05T13:15:06.684Z,0.73
2022-08-05T13:20:20.374Z,4.85
2022-08-05T13:25:52.468Z,3.22
2022-08-05T13:30:48.435Z,1.35
2022-08-05T13:35:53.087Z,1.27
2022-08-05T13:40:55.264Z,2.00
2022-08-05T13:46:00.132Z,1.42
2022-08-05T13:51:09.909Z,1.08
2022-08-05T13:56:18.466Z,2.53
2022-08-05T14:01:27.432Z,1.85
2022-08-05T14:06:47.784Z,2.60
2022-08-05T14:12:00.398Z,1.52
2022-08-05T14:17:06.922Z,3.95
2022-08-05T14:22:22.040Z,1.50
2022-08-05T14:27:24.413Z,2.83
2022-08-05T14:32:31.368Z,2.13
2022-08-05T14:37:44.691Z,4.13
2022-08-05T14:42:49.255Z,1.45
2022-08-05T14:48:03.103Z,1.77
2022-08-05T14:53:07.981Z,2.08
2022-08-05T14:58:14.068Z,3.00
2022-08-05T15:03:16.251Z,3.05
2022-08-05T15:08:38.142Z,1.67
2022-08-05T15:13:45.832Z,1.88
2022-08-05T15:18:48.490Z,1.10
2022-08-05T15:23:50.988Z,1.67
2022-08-05T15:28:53.552Z,2.67
2022-08-05T15:34:18.646Z,2.95
2022-08-05T15:40:59.324Z,2.28
2022-08-05T15:44:44.864Z,1.58
2022-08-05T15:49:58.504Z,2.55
2022-08-05T15:55:01.997Z,2.70
2022-08-05T16:00:05.283Z,2.30
2022-08-05T16:05:09.683Z,3.28
2022-08-05T16:10:15.526Z,4.95
2022-08-05T16:15:20.406Z,3.40
2022-08-05T16:20:22.585Z,1.15
2022-08-05T16:25:34.200Z,4.53
2022-08-05T16:30:38.029Z,2.22
2022-08-05T16:35:42.202Z,2.35
2022-08-05T16:40:48.093Z,3.38
2022-08-05T16:46:05.101Z,1.23
2022-08-05T16:51:11.444Z,2.05
2022-08-05T16:56:13.489Z,3.13
2022-08-05T17:01:15.702Z,2.33
2022-08-05T17:06:17.903Z,3.88
2022-08-05T17:11:19.951Z,4.03
2022-08-05T17:16:32.535Z,2.13
2022-08-05T17:21:37.017Z,4.00
2022-08-05T17:26:40.934Z,2.85
2022-08-05T17:31:58.328Z,3.00
2022-08-05T17:37:01.610Z,2.80
2022-08-05T17:42:19.228Z,3.33
2022-08-05T17:47:28.741Z,2.97
2022-08-05T17:52:34.842Z,2.25
2022-08-05T17:57:55.723Z,3.38
2022-08-05T18:02:58.007Z,3.38
2022-08-05T18:08:00.232Z,4.53
2022-08-05T18:13:07.541Z,3.92
2022-08-05T18:18:14.472Z,3.42
2022-08-05T18:23:18.797Z,2.67
2022-08-05T18:28:24.088Z,1.70
2022-08-05T18:33:37.578Z,3.45
2022-08-05T18:38:49.486Z,4.07
2022-08-05T18:43:52.434Z,6.38
2022-08-05T18:48:54.686Z,4.93
2022-08-05T18:53:56.908Z,2.67
2022-08-05T18:59:01.111Z,4.18
2022-08-05T19:04:05.325Z,3.35
2022-08-05T19:09:07.673Z,2.13
2022-08-05T19:14:37.903Z,1.95
2022-08-05T19:19:31.992Z,3.83
2022-08-05T19:24:35.144Z,2.65
2022-08-05T19:29:37.718Z,6.53
2022-08-05T19:34:42.001Z,4.40
2022-08-05T19:39:58.759Z,7.55
2022-08-05T19:45:01.452Z,4.53
2022-08-05T19:50:07.813Z,4.32
2022-08-05T19:56:14.879Z,6.15
2022-08-05T20:00:34.905Z,4.47
2022-08-05T20:05:43.238Z,5.10
2022-08-05T20:10:53.123Z,5.18
2022-08-05T20:15:57.485Z,4.53
2022-08-05T20:21:00.254Z,5.47
2022-08-05T20:26:07.834Z,4.13
2022-08-05T20:31:09.887Z,5.68
2022-08-05T20:36:14.203Z,4.47
2022-08-05T20:41:27.179Z,3.90
2022-08-05T20:46:40.466Z,2.15
2022-08-05T20:51:44.889Z,3.03
2022-08-05T20:56:56.340Z,5.90
2022-08-05T21:01:59.600Z,3.25
2022-08-05T21:07:01.699Z,3.60
2022-08-05T21:12:09.702Z,5.97
2022-08-05T21:17:13.257Z,3.85
2022-08-05T21:22:23.238Z,2.97
2022-08-05T21:27:27.250Z,4.40
2022-08-05T21:32:32.664Z,4.13
2022-08-05T21:37:35.065Z,5.45
2022-08-05T21:42:45.101Z,4.03
2022-08-05T21:47:56.745Z,4.35
2022-08-05T21:53:04.893Z,6.65
2022-08-05T21:58:20.396Z,5.45
2022-08-05T22:03:48.825Z,4.03
2022-08-05T22:08:54.916Z,5.97
2022-08-05T22:14:06.627Z,4.70
2022-08-05T22:20:02.937Z,4.50
2022-08-05T22:25:01.396Z,4.60
2022-08-05T22:30:04.297Z,3.90
2022-08-05T22:35:07.084Z,2.95
2022-08-05T22:40:09.694Z,5.57
2022-08-05T22:45:18.837Z,5.03
2022-08-05T22:50:26.629Z,3.83
2022-08-05T22:55:29.844Z,4.10
2022-08-05T23:00:52.012Z,4.60
2022-08-05T23:05:59.090Z,3.65
2022-08-05T23:11:03.108Z,5.85
2022-08-05T23:16:05.489Z,6.03
2022-08-05T23:21:10.258Z,5.53
2022-08-05T23:26:12.420Z,4.60
2022-08-05T23:31:17.555Z,6.85
2022-08-05T23:36:20.044Z,3.80
2022-08-05T23:41:22.072Z,5.50
2022-08-05T23:46:26.038Z,4.18
2022-08-05T23:51:53.560Z,6.60
2022-08-05T23:57:03.321Z,7.13
